sensor_id;sensor_type;location;lat;lon;timestamp;temperature;humidity
14769;DHT22;7476;49.404;11.152;2022-10-31T00:01:44;8.20;99.90
14769;DHT22;7476;49.404;11.152;2022-10-31T00:04:11;8.50;99.90
14769;DHT22;7476;49.404;11.152;2022-10-31T00:06:37;8.50;99.90
14769;DHT22;7476;49.404;11.152;2022-10-31T00:09:05;8.40;99.90
14769;DHT22;7476;49.404;11.152;2022-10-31T00:11:32;8.40;99.90
14769;DHT22;7476;49.404;11.152;2022-10-31T00:13:59;8.40;99.90
14769;DHT22;7476;49.404;11.152;2022-10-31T00:16:26;8.40;99.90
14769;DHT22;7476;49.404;11.152;2022-10-31T00:18:56;8.20;99.90
14769;DHT22;7476;49.404;11.152;2022-10-31T00:21:24;8.10;99.90
14769;DHT22;7476;49.404;11.152;2022-10-31T00:23:51;8.10;99.90
14769;DHT22;7476;49.404;11.152;2022-10-31T00:26:18;8.20;99.90
14769;DHT22;7476;49.404;11.152;2022-10-31T00:28:45;8.30;99.90
14769;DHT22;7476;49.404;11.152;2022-10-31T00:31:13;8.30;99.90
14769;DHT22;7476;49.404;11.152;2022-10-31T00:33:41;8.20;99.90
14769;DHT22;7476;49.404;11.152;2022-10-31T00:36:12;8.20;99.90
14769;DHT22;7476;49.404;11.152;2022-10-31T00:38:39;8.00;99.90
14769;DHT22;7476;49.404;11.152;2022-10-31T00:41:06;7.80;99.90
14769;DHT22;7476;49.404;11.152;2022-10-31T00:43:33;7.80;99.90
14769;DHT22;7476;49.404;11.152;2022-10-31T00:46:00;7.70;99.90
14769;DHT22;7476;49.404;11.152;2022-10-31T00:48:27;7.60;99.90
14769;DHT22;7476;49.404;11.152;2022-10-31T00:50:54;7.60;99.90
14769;DHT22;7476;49.404;11.152;2022-10-31T00:53:22;7.60;99.90
14769;DHT22;7476;49.404;11.152;2022-10-31T00:55:49;7.60;99.90
14769;DHT22;7476;49.404;11.152;2022-10-31T00:58:16;7.50;99.90
14769;DHT22;7476;49.404;11.152;2022-10-31T01:00:42;7.50;99.90
14769;DHT22;7476;49.404;11.152;2022-10-31T01:03:09;7.50;99.90
14769;DHT22;7476;49.404;11.152;2022-10-31T01:05:36;7.50;99.90
14769;DHT22;7476;49.404;11.152;2022-10-31T01:08:03;7.60;99.90
14769;DHT22;7476;49.404;11.152;2022-10-31T01:10:31;7.60;99.90
14769;DHT22;7476;49.404;11.152;2022-10-31T01:12:58;7.60;99.90
14769;DHT22;7476;49.404;11.152;2022-10-31T01:15:24;7.60;99.90
14769;DHT22;7476;49.404;11.152;2022-10-31T01:17:51;7.60;99.90
14769;DHT22;7476;49.404;11.152;2022-10-31T01:20:19;7.70;99.90
14769;DHT22;7476;49.404;11.152;2022-10-31T01:22:46;7.70;99.90
14769;DHT22;7476;49.404;11.152;2022-10-31T01:25:13;7.60;99.90
14769;DHT22;7476;49.404;11.152;2022-10-31T01:27:41;7.60;99.90
14769;DHT22;7476;49.404;11.152;2022-10-31T01:30:08;7.50;99.90
14769;DHT22;7476;49.404;11.152;2022-10-31T01:32:35;7.50;99.90
14769;DHT22;7476;49.404;11.152;2022-10-31T01:35:02;7.40;99.90
14769;DHT22;7476;49.404;11.152;2022-10-31T01:37:30;7.50;99.90
14769;DHT22;7476;49.404;11.152;2022-10-31T01:39:57;7.50;99.90
14769;DHT22;7476;49.404;11.152;2022-10-31T01:42:24;7.40;99.90
14769;DHT22;7476;49.404;11.152;2022-10-31T01:44:59;7.30;99.90
14769;DHT22;7476;49.404;11.152;2022-10-31T01:47:34;7.30;99.90
14769;DHT22;7476;49.404;11.152;2022-10-31T01:50:09;7.70;99.90
14769;DHT22;7476;49.404;11.152;2022-10-31T01:52:40;7.60;99.90
14769;DHT22;7476;49.404;11.152;2022-10-31T01:55:09;7.50;99.90
14769;DHT22;7476;49.404;11.152;2022-10-31T01:57:40;7.30;99.90
14769;DHT22;7476;49.404;11.152;2022-10-31T02:00:10;7.10;99.90
14769;DHT22;7476;49.404;11.152;2022-10-31T02:02:38;7.20;99.90
14769;DHT22;7476;49.404;11.152;2022-10-31T02:05:07;7.40;99.90
14769;DHT22;7476;49.404;11.152;2022-10-31T02:07:39;7.60;99.90
14769;DHT22;7476;49.404;11.152;2022-10-31T02:10:06;7.70;99.90
14769;DHT22;7476;49.404;11.152;2022-10-31T02:12:34;7.60;99.90
14769;DHT22;7476;49.404;11.152;2022-10-31T02:15:03;7.50;99.90
14769;DHT22;7476;49.404;11.152;2022-10-31T02:17:32;7.50;99.90
14769;DHT22;7476;49.404;11.152;2022-10-31T02:20:07;7.60;99.90
14769;DHT22;7476;49.404;11.152;2022-10-31T02:22:43;7.50;99.90
14769;DHT22;7476;49.404;11.152;2022-10-31T02:25:27;7.40;99.90
14769;DHT22;7476;49.404;11.152;2022-10-31T02:28:27;7.30;99.90
14769;DHT22;7476;49.404;11.152;2022-10-31T02:31:10;7.10;99.90
14769;DHT22;7476;49.404;11.152;2022-10-31T02:33:43;7.10;99.90
14769;DHT22;7476;49.404;11.152;2022-10-31T02:36:14;7.00;99.90
14769;DHT22;7476;49.404;11.152;2022-10-31T02:38:50;6.80;99.90
14769;DHT22;7476;49.404;11.152;2022-10-31T02:41:21;6.80;99.90
14769;DHT22;7476;49.404;11.152;2022-10-31T02:44:00;7.00;99.90
14769;DHT22;7476;49.404;11.152;2022-10-31T02:46:34;6.80;99.90
14769;DHT22;7476;49.404;11.152;2022-10-31T02:49:07;7.20;99.90
14769;DHT22;7476;49.404;11.152;2022-10-31T02:51:37;7.30;99.90
14769;DHT22;7476;49.404;11.152;2022-10-31T02:54:04;7.20;99.90
14769;DHT22;7476;49.404;11.152;2022-10-31T02:56:31;7.00;99.90
14769;DHT22;7476;49.404;11.152;2022-10-31T02:59:01;7.00;99.90
14769;DHT22;7476;49.404;11.152;2022-10-31T03:01:51;7.20;99.90
14769;DHT22;7476;49.404;11.152;2022-10-31T03:04:49;7.00;99.90
14769;DHT22;7476;49.404;11.152;2022-10-31T03:07:28;7.00;99.90
14769;DHT22;7476;49.404;11.152;2022-10-31T03:10:04;7.00;99.90
14769;DHT22;7476;49.404;11.152;2022-10-31T03:12:38;7.00;99.90
14769;DHT22;7476;49.404;11.152;2022-10-31T03:15:11;6.90;99.90
14769;DHT22;7476;49.404;11.152;2022-10-31T03:17:47;6.80;99.90
14769;DHT22;7476;49.404;11.152;2022-10-31T03:20:20;6.70;99.90
14769;DHT22;7476;49.404;11.152;2022-10-31T03:22:48;6.60;99.90
14769;DHT22;7476;49.404;11.152;2022-10-31T03:25:15;6.60;99.90
14769;DHT22;7476;49.404;11.152;2022-10-31T03:27:43;7.00;99.90
14769;DHT22;7476;49.404;11.152;2022-10-31T03:30:11;7.40;99.90
14769;DHT22;7476;49.404;11.152;2022-10-31T03:32:42;7.30;99.90
14769;DHT22;7476;49.404;11.152;2022-10-31T03:35:10;7.10;99.90
14769;DHT22;7476;49.404;11.152;2022-10-31T03:37:40;7.10;99.90
14769;DHT22;7476;49.404;11.152;2022-10-31T03:40:10;7.10;99.90
14769;DHT22;7476;49.404;11.152;2022-10-31T03:42:40;7.50;99.90
14769;DHT22;7476;49.404;11.152;2022-10-31T03:45:12;7.50;99.90
14769;DHT22;7476;49.404;11.152;2022-10-31T03:47:43;7.40;99.90
14769;DHT22;7476;49.404;11.152;2022-10-31T03:50:12;7.40;99.90
14769;DHT22;7476;49.404;11.152;2022-10-31T03:52:44;7.50;99.90
14769;DHT22;7476;49.404;11.152;2022-10-31T03:55:17;7.50;99.90
14769;DHT22;7476;49.404;11.152;2022-10-31T03:57:49;7.40;99.90
14769;DHT22;7476;49.404;11.152;2022-10-31T04:00:18;7.00;99.90
14769;DHT22;7476;49.404;11.152;2022-10-31T04:02:50;6.70;99.90
14769;DHT22;7476;49.404;11.152;2022-10-31T04:05:18;6.60;99.90
14769;DHT22;7476;49.404;11.152;2022-10-31T04:07:48;6.80;99.90
14769;DHT22;7476;49.404;11.152;2022-10-31T04:10:17;6.80;99.90
14769;DHT22;7476;49.404;11.152;2022-10-31T04:12:49;6.50;99.90
14769;DHT22;7476;49.404;11.152;2022-10-31T04:15:16;6.30;99.90
14769;DHT22;7476;49.404;11.152;2022-10-31T04:17:46;6.20;99.90
14769;DHT22;7476;49.404;11.152;2022-10-31T04:20:15;6.20;99.90
14769;DHT22;7476;49.404;11.152;2022-10-31T04:22:42;6.10;99.90
14769;DHT22;7476;49.404;11.152;2022-10-31T04:25:09;6.00;99.90
14769;DHT22;7476;49.404;11.152;2022-10-31T04:27:36;5.90;99.90
14769;DHT22;7476;49.404;11.152;2022-10-31T04:30:03;5.80;99.90
14769;DHT22;7476;49.404;11.152;2022-10-31T04:32:30;5.90;99.90
14769;DHT22;7476;49.404;11.152;2022-10-31T04:34:58;6.10;99.90
14769;DHT22;7476;49.404;11.152;2022-10-31T04:37:25;6.20;99.90
14769;DHT22;7476;49.404;11.152;2022-10-31T04:39:51;6.30;99.90
14769;DHT22;7476;49.404;11.152;2022-10-31T04:42:18;6.30;99.90
14769;DHT22;7476;49.404;11.152;2022-10-31T04:44:45;6.10;99.90
14769;DHT22;7476;49.404;11.152;2022-10-31T04:47:12;6.00;99.90
14769;DHT22;7476;49.404;11.152;2022-10-31T04:49:38;5.90;99.90
14769;DHT22;7476;49.404;11.152;2022-10-31T04:52:06;5.80;99.90
14769;DHT22;7476;49.404;11.152;2022-10-31T04:54:33;5.70;99.90
14769;DHT22;7476;49.404;11.152;2022-10-31T04:57:00;5.70;99.90
14769;DHT22;7476;49.404;11.152;2022-10-31T04:59:27;5.70;99.90
14769;DHT22;7476;49.404;11.152;2022-10-31T05:01:54;5.60;99.90
14769;DHT22;7476;49.404;11.152;2022-10-31T05:04:21;5.60;99.90
14769;DHT22;7476;49.404;11.152;2022-10-31T05:06:47;5.70;99.90
14769;DHT22;7476;49.404;11.152;2022-10-31T05:09:15;5.70;99.90
14769;DHT22;7476;49.404;11.152;2022-10-31T05:11:42;5.70;99.90
14769;DHT22;7476;49.404;11.152;2022-10-31T05:14:09;5.70;99.90
14769;DHT22;7476;49.404;11.152;2022-10-31T05:16:35;5.80;99.90
14769;DHT22;7476;49.404;11.152;2022-10-31T05:19:02;5.80;99.90
14769;DHT22;7476;49.404;11.152;2022-10-31T05:21:29;5.80;99.90
14769;DHT22;7476;49.404;11.152;2022-10-31T05:23:55;6.00;99.90
14769;DHT22;7476;49.404;11.152;2022-10-31T05:26:24;6.20;99.90
14769;DHT22;7476;49.404;11.152;2022-10-31T05:28:50;6.40;99.90
14769;DHT22;7476;49.404;11.152;2022-10-31T05:31:17;6.70;99.90
14769;DHT22;7476;49.404;11.152;2022-10-31T05:33:44;6.50;99.90
14769;DHT22;7476;49.404;11.152;2022-10-31T05:36:11;6.40;99.90
14769;DHT22;7476;49.404;11.152;2022-10-31T05:38:37;6.20;99.90
14769;DHT22;7476;49.404;11.152;2022-10-31T05:41:04;6.10;99.90
14769;DHT22;7476;49.404;11.152;2022-10-31T05:43:32;5.90;99.90
14769;DHT22;7476;49.404;11.152;2022-10-31T05:45:59;5.80;99.90
14769;DHT22;7476;49.404;11.152;2022-10-31T05:48:26;5.70;99.90
14769;DHT22;7476;49.404;11.152;2022-10-31T05:50:52;5.70;99.90
14769;DHT22;7476;49.404;11.152;2022-10-31T05:53:19;5.60;99.90
14769;DHT22;7476;49.404;11.152;2022-10-31T05:55:46;5.50;99.90
14769;DHT22;7476;49.404;11.152;2022-10-31T05:58:13;5.50;99.90
14769;DHT22;7476;49.404;11.152;2022-10-31T06:00:41;5.60;99.90
14769;DHT22;7476;49.404;11.152;2022-10-31T06:03:09;5.90;99.90
14769;DHT22;7476;49.404;11.152;2022-10-31T06:05:35;6.10;99.90
14769;DHT22;7476;49.404;11.152;2022-10-31T06:08:02;6.20;99.90
14769;DHT22;7476;49.404;11.152;2022-10-31T06:10:29;6.20;99.90
14769;DHT22;7476;49.404;11.152;2022-10-31T06:12:56;6.10;99.90
14769;DHT22;7476;49.404;11.152;2022-10-31T06:15:23;6.30;99.90
14769;DHT22;7476;49.404;11.152;2022-10-31T06:17:59;6.60;99.90
14769;DHT22;7476;49.404;11.152;2022-10-31T06:20:26;6.50;99.90
14769;DHT22;7476;49.404;11.152;2022-10-31T06:22:53;6.60;99.90
14769;DHT22;7476;49.404;11.152;2022-10-31T06:25:19;6.50;99.90
14769;DHT22;7476;49.404;11.152;2022-10-31T06:27:46;6.40;99.90
14769;DHT22;7476;49.404;11.152;2022-10-31T06:30:13;6.40;99.90
14769;DHT22;7476;49.404;11.152;2022-10-31T06:32:40;6.50;99.90
14769;DHT22;7476;49.404;11.152;2022-10-31T06:35:08;6.80;99.90
14769;DHT22;7476;49.404;11.152;2022-10-31T06:37:35;6.90;99.90
14769;DHT22;7476;49.404;11.152;2022-10-31T06:40:02;7.00;99.90
14769;DHT22;7476;49.404;11.152;2022-10-31T06:42:29;7.00;99.90
14769;DHT22;7476;49.404;11.152;2022-10-31T06:44:55;6.90;99.90
14769;DHT22;7476;49.404;11.152;2022-10-31T06:47:22;6.90;99.90
14769;DHT22;7476;49.404;11.152;2022-10-31T06:49:49;6.90;99.90
14769;DHT22;7476;49.404;11.152;2022-10-31T06:52:17;6.90;99.90
14769;DHT22;7476;49.404;11.152;2022-10-31T06:54:43;7.00;99.90
14769;DHT22;7476;49.404;11.152;2022-10-31T06:57:10;7.00;99.90
14769;DHT22;7476;49.404;11.152;2022-10-31T06:59:37;7.20;99.90
14769;DHT22;7476;49.404;11.152;2022-10-31T07:02:07;7.30;99.90
14769;DHT22;7476;49.404;11.152;2022-10-31T07:04:33;7.50;99.90
14769;DHT22;7476;49.404;11.152;2022-10-31T07:07:00;7.70;99.90
14769;DHT22;7476;49.404;11.152;2022-10-31T07:09:28;7.80;99.90
14769;DHT22;7476;49.404;11.152;2022-10-31T07:11:55;7.90;99.90
14769;DHT22;7476;49.404;11.152;2022-10-31T07:14:21;8.10;99.90
14769;DHT22;7476;49.404;11.152;2022-10-31T07:16:49;8.30;99.90
14769;DHT22;7476;49.404;11.152;2022-10-31T07:19:16;8.50;99.90
14769;DHT22;7476;49.404;11.152;2022-10-31T07:21:43;8.90;99.90
14769;DHT22;7476;49.404;11.152;2022-10-31T07:24:10;9.10;99.90
14769;DHT22;7476;49.404;11.152;2022-10-31T07:26:38;9.50;99.90
14769;DHT22;7476;49.404;11.152;2022-10-31T07:29:05;9.90;99.90
14769;DHT22;7476;49.404;11.152;2022-10-31T07:31:31;10.20;99.90
14769;DHT22;7476;49.404;11.152;2022-10-31T07:33:58;10.70;99.90
14769;DHT22;7476;49.404;11.152;2022-10-31T07:36:25;11.10;99.90
14769;DHT22;7476;49.404;11.152;2022-10-31T07:38:51;11.30;99.90
14769;DHT22;7476;49.404;11.152;2022-10-31T07:41:18;11.50;99.90
14769;DHT22;7476;49.404;11.152;2022-10-31T07:43:46;12.00;99.90
14769;DHT22;7476;49.404;11.152;2022-10-31T07:46:13;12.10;99.90
14769;DHT22;7476;49.404;11.152;2022-10-31T07:48:40;12.20;99.90
14769;DHT22;7476;49.404;11.152;2022-10-31T07:51:06;12.40;99.90
14769;DHT22;7476;49.404;11.152;2022-10-31T07:53:33;12.90;99.90
14769;DHT22;7476;49.404;11.152;2022-10-31T07:56:00;12.70;99.90
14769;DHT22;7476;49.404;11.152;2022-10-31T07:58:27;12.90;99.90
14769;DHT22;7476;49.404;11.152;2022-10-31T08:00:55;13.10;99.90
14769;DHT22;7476;49.404;11.152;2022-10-31T08:03:21;13.30;99.90
14769;DHT22;7476;49.404;11.152;2022-10-31T08:05:48;13.00;99.90
14769;DHT22;7476;49.404;11.152;2022-10-31T08:08:15;13.20;99.90
14769;DHT22;7476;49.404;11.152;2022-10-31T08:10:42;13.70;99.90
14769;DHT22;7476;49.404;11.152;2022-10-31T08:13:10;14.20;99.90
14769;DHT22;7476;49.404;11.152;2022-10-31T08:15:38;14.40;99.90
14769;DHT22;7476;49.404;11.152;2022-10-31T08:18:11;14.40;99.90
14769;DHT22;7476;49.404;11.152;2022-10-31T08:20:38;14.40;99.90
14769;DHT22;7476;49.404;11.152;2022-10-31T08:23:05;14.80;99.90
14769;DHT22;7476;49.404;11.152;2022-10-31T08:25:34;14.90;99.90
14769;DHT22;7476;49.404;11.152;2022-10-31T08:28:02;14.90;99.90
14769;DHT22;7476;49.404;11.152;2022-10-31T08:30:30;15.20;99.90
14769;DHT22;7476;49.404;11.152;2022-10-31T08:32:59;15.40;99.90
14769;DHT22;7476;49.404;11.152;2022-10-31T08:35:28;15.10;99.90
14769;DHT22;7476;49.404;11.152;2022-10-31T08:37:55;15.80;99.90
14769;DHT22;7476;49.404;11.152;2022-10-31T08:40:22;16.10;99.90
14769;DHT22;7476;49.404;11.152;2022-10-31T08:42:56;16.30;99.90
14769;DHT22;7476;49.404;11.152;2022-10-31T08:45:23;16.60;99.90
14769;DHT22;7476;49.404;11.152;2022-10-31T08:47:50;16.70;99.90
14769;DHT22;7476;49.404;11.152;2022-10-31T08:50:17;16.80;99.90
14769;DHT22;7476;49.404;11.152;2022-10-31T08:52:45;17.10;99.90
14769;DHT22;7476;49.404;11.152;2022-10-31T08:55:11;16.80;99.90
14769;DHT22;7476;49.404;11.152;2022-10-31T08:57:38;16.20;99.90
14769;DHT22;7476;49.404;11.152;2022-10-31T09:00:06;16.60;99.90
14769;DHT22;7476;49.404;11.152;2022-10-31T09:02:33;17.00;99.90
14769;DHT22;7476;49.404;11.152;2022-10-31T09:05:00;16.90;99.90
14769;DHT22;7476;49.404;11.152;2022-10-31T09:07:26;16.70;99.90
14769;DHT22;7476;49.404;11.152;2022-10-31T09:09:55;16.50;99.90
14769;DHT22;7476;49.404;11.152;2022-10-31T09:12:22;16.60;99.90
14769;DHT22;7476;49.404;11.152;2022-10-31T09:14:49;16.80;99.90
14769;DHT22;7476;49.404;11.152;2022-10-31T09:17:16;16.70;99.90
14769;DHT22;7476;49.404;11.152;2022-10-31T09:19:43;16.60;99.90
14769;DHT22;7476;49.404;11.152;2022-10-31T09:22:09;16.30;99.90
14769;DHT22;7476;49.404;11.152;2022-10-31T09:24:36;16.60;99.90
14769;DHT22;7476;49.404;11.152;2022-10-31T09:27:04;16.90;99.90
14769;DHT22;7476;49.404;11.152;2022-10-31T09:29:31;16.80;99.90
14769;DHT22;7476;49.404;11.152;2022-10-31T09:31:57;16.90;99.90
14769;DHT22;7476;49.404;11.152;2022-10-31T09:34:24;17.10;99.90
14769;DHT22;7476;49.404;11.152;2022-10-31T09:36:52;17.40;99.90
14769;DHT22;7476;49.404;11.152;2022-10-31T09:39:19;17.40;99.90
14769;DHT22;7476;49.404;11.152;2022-10-31T09:42:02;17.50;99.90
14769;DHT22;7476;49.404;11.152;2022-10-31T09:44:40;17.60;99.90
14769;DHT22;7476;49.404;11.152;2022-10-31T09:47:16;17.80;99.90
14769;DHT22;7476;49.404;11.152;2022-10-31T09:49:58;17.80;99.90
14769;DHT22;7476;49.404;11.152;2022-10-31T09:52:29;17.70;99.90
14769;DHT22;7476;49.404;11.152;2022-10-31T09:54:59;17.80;99.90
14769;DHT22;7476;49.404;11.152;2022-10-31T09:57:29;18.10;99.90
14769;DHT22;7476;49.404;11.152;2022-10-31T09:59:59;18.00;99.90
14769;DHT22;7476;49.404;11.152;2022-10-31T10:02:41;18.20;99.90
14769;DHT22;7476;49.404;11.152;2022-10-31T10:05:12;18.40;99.90
14769;DHT22;7476;49.404;11.152;2022-10-31T10:07:45;18.60;99.90
14769;DHT22;7476;49.404;11.152;2022-10-31T10:10:16;18.80;99.90
14769;DHT22;7476;49.404;11.152;2022-10-31T10:12:54;19.30;99.90
14769;DHT22;7476;49.404;11.152;2022-10-31T10:15:36;20.10;99.90
14769;DHT22;7476;49.404;11.152;2022-10-31T10:18:16;20.40;99.90
14769;DHT22;7476;49.404;11.152;2022-10-31T10:20:57;20.50;99.90
14769;DHT22;7476;49.404;11.152;2022-10-31T10:23:35;20.90;99.90
14769;DHT22;7476;49.404;11.152;2022-10-31T10:26:13;21.20;99.90
14769;DHT22;7476;49.404;11.152;2022-10-31T10:28:44;21.70;99.90
14769;DHT22;7476;49.404;11.152;2022-10-31T10:31:15;22.20;99.90
14769;DHT22;7476;49.404;11.152;2022-10-31T10:33:47;22.60;99.90
14769;DHT22;7476;49.404;11.152;2022-10-31T10:36:22;22.10;99.90
14769;DHT22;7476;49.404;11.152;2022-10-31T10:38:54;22.40;99.90
14769;DHT22;7476;49.404;11.152;2022-10-31T10:41:24;22.60;99.90
14769;DHT22;7476;49.404;11.152;2022-10-31T10:43:54;22.90;99.90
14769;DHT22;7476;49.404;11.152;2022-10-31T10:46:26;22.90;99.90
14769;DHT22;7476;49.404;11.152;2022-10-31T10:49:16;23.00;99.90
14769;DHT22;7476;49.404;11.152;2022-10-31T10:51:46;22.00;99.90
14769;DHT22;7476;49.404;11.152;2022-10-31T10:54:23;22.40;99.90
14769;DHT22;7476;49.404;11.152;2022-10-31T10:57:00;23.10;99.90
14769;DHT22;7476;49.404;11.152;2022-10-31T10:59:29;23.50;99.90
14769;DHT22;7476;49.404;11.152;2022-10-31T11:01:58;23.60;99.90
14769;DHT22;7476;49.404;11.152;2022-10-31T11:04:31;23.90;99.90
14769;DHT22;7476;49.404;11.152;2022-10-31T11:06:59;23.80;99.90
14769;DHT22;7476;49.404;11.152;2022-10-31T11:09:26;23.60;99.90
14769;DHT22;7476;49.404;11.152;2022-10-31T11:11:54;23.50;99.90
14769;DHT22;7476;49.404;11.152;2022-10-31T11:14:21;23.60;99.90
14769;DHT22;7476;49.404;11.152;2022-10-31T11:16:50;23.60;99.90
14769;DHT22;7476;49.404;11.152;2022-10-31T11:19:20;23.70;99.90
14769;DHT22;7476;49.404;11.152;2022-10-31T11:21:48;23.60;99.90
14769;DHT22;7476;49.404;11.152;2022-10-31T11:24:17;23.90;99.90
14769;DHT22;7476;49.404;11.152;2022-10-31T11:26:46;23.60;99.90
14769;DHT22;7476;49.404;11.152;2022-10-31T11:29:16;23.40;99.90
14769;DHT22;7476;49.404;11.152;2022-10-31T11:31:44;23.90;99.90
14769;DHT22;7476;49.404;11.152;2022-10-31T11:34:29;24.40;99.90
14769;DHT22;7476;49.404;11.152;2022-10-31T11:37:03;24.40;99.90
14769;DHT22;7476;49.404;11.152;2022-10-31T11:39:31;24.70;99.90
14769;DHT22;7476;49.404;11.152;2022-10-31T11:42:01;25.20;99.90
14769;DHT22;7476;49.404;11.152;2022-10-31T11:44:29;25.40;99.90
14769;DHT22;7476;49.404;11.152;2022-10-31T11:46:59;25.30;99.90
14769;DHT22;7476;49.404;11.152;2022-10-31T11:49:32;24.80;99.90
14769;DHT22;7476;49.404;11.152;2022-10-31T11:52:04;24.60;99.90
14769;DHT22;7476;49.404;11.152;2022-10-31T11:54:34;23.90;99.90
14769;DHT22;7476;49.404;11.152;2022-10-31T11:57:02;24.30;99.90
14769;DHT22;7476;49.404;11.152;2022-10-31T11:59:30;24.20;99.90
14769;DHT22;7476;49.404;11.152;2022-10-31T12:02:01;24.80;99.90
14769;DHT22;7476;49.404;11.152;2022-10-31T12:04:36;24.80;99.90
14769;DHT22;7476;49.404;11.152;2022-10-31T12:07:03;25.70;99.90
14769;DHT22;7476;49.404;11.152;2022-10-31T12:09:33;26.00;99.90
14769;DHT22;7476;49.404;11.152;2022-10-31T12:15:32;26.90;99.90
14769;DHT22;7476;49.404;11.152;2022-10-31T12:18:15;26.90;99.90
14769;DHT22;7476;49.404;11.152;2022-10-31T12:20:54;26.50;99.90
14769;DHT22;7476;49.404;11.152;2022-10-31T12:23:31;26.20;99.90
14769;DHT22;7476;49.404;11.152;2022-10-31T12:26:08;26.70;99.90
14769;DHT22;7476;49.404;11.152;2022-10-31T12:28:57;27.20;99.90
14769;DHT22;7476;49.404;11.152;2022-10-31T12:31:36;27.30;99.90
14769;DHT22;7476;49.404;11.152;2022-10-31T12:34:25;27.50;99.90
14769;DHT22;7476;49.404;11.152;2022-10-31T12:37:02;28.00;99.90
14769;DHT22;7476;49.404;11.152;2022-10-31T12:39:39;27.90;99.90
14769;DHT22;7476;49.404;11.152;2022-10-31T12:42:17;27.60;99.90
14769;DHT22;7476;49.404;11.152;2022-10-31T12:45:02;27.70;99.90
14769;DHT22;7476;49.404;11.152;2022-10-31T12:48:07;27.80;99.90
14769;DHT22;7476;49.404;11.152;2022-10-31T12:50:47;27.90;99.90
14769;DHT22;7476;49.404;11.152;2022-10-31T12:53:28;28.00;99.90
14769;DHT22;7476;49.404;11.152;2022-10-31T12:56:06;28.70;99.90
14769;DHT22;7476;49.404;11.152;2022-10-31T12:58:40;29.40;99.90
14769;DHT22;7476;49.404;11.152;2022-10-31T13:01:14;29.50;99.90
14769;DHT22;7476;49.404;11.152;2022-10-31T13:03:46;29.30;99.90
14769;DHT22;7476;49.404;11.152;2022-10-31T13:06:19;28.60;99.90
14769;DHT22;7476;49.404;11.152;2022-10-31T13:08:51;28.10;99.90
14769;DHT22;7476;49.404;11.152;2022-10-31T13:11:21;27.00;96.70
14769;DHT22;7476;49.404;11.152;2022-10-31T13:13:57;26.10;98.30
14769;DHT22;7476;49.404;11.152;2022-10-31T13:16:28;25.30;99.50
14769;DHT22;7476;49.404;11.152;2022-10-31T13:18:59;25.20;99.90
14769;DHT22;7476;49.404;11.152;2022-10-31T13:21:30;24.70;99.90
14769;DHT22;7476;49.404;11.152;2022-10-31T13:24:07;24.00;99.90
14769;DHT22;7476;49.404;11.152;2022-10-31T13:26:38;24.00;99.90
14769;DHT22;7476;49.404;11.152;2022-10-31T13:29:14;23.90;99.90
14769;DHT22;7476;49.404;11.152;2022-10-31T13:31:43;23.30;99.90
14769;DHT22;7476;49.404;11.152;2022-10-31T13:34:19;23.40;99.90
14769;DHT22;7476;49.404;11.152;2022-10-31T13:36:55;23.40;99.90
14769;DHT22;7476;49.404;11.152;2022-10-31T13:39:33;23.30;99.90
14769;DHT22;7476;49.404;11.152;2022-10-31T13:42:11;23.60;99.90
14769;DHT22;7476;49.404;11.152;2022-10-31T13:44:40;23.40;99.90
14769;DHT22;7476;49.404;11.152;2022-10-31T13:47:22;23.10;99.90
14769;DHT22;7476;49.404;11.152;2022-10-31T13:49:49;23.50;99.90
14769;DHT22;7476;49.404;11.152;2022-10-31T13:52:22;23.70;99.90
14769;DHT22;7476;49.404;11.152;2022-10-31T13:54:53;24.60;99.90
14769;DHT22;7476;49.404;11.152;2022-10-31T13:57:30;25.20;99.90
14769;DHT22;7476;49.404;11.152;2022-10-31T13:59:58;25.70;99.90
14769;DHT22;7476;49.404;11.152;2022-10-31T14:02:27;25.40;99.90
14769;DHT22;7476;49.404;11.152;2022-10-31T14:04:57;24.70;99.90
14769;DHT22;7476;49.404;11.152;2022-10-31T14:07:25;24.60;99.90
14769;DHT22;7476;49.404;11.152;2022-10-31T14:09:57;24.70;99.90
14769;DHT22;7476;49.404;11.152;2022-10-31T14:12:28;24.50;99.90
14769;DHT22;7476;49.404;11.152;2022-10-31T14:15:00;24.10;99.90
14769;DHT22;7476;49.404;11.152;2022-10-31T14:17:29;24.00;99.90
14769;DHT22;7476;49.404;11.152;2022-10-31T14:20:19;23.70;99.90
14769;DHT22;7476;49.404;11.152;2022-10-31T14:22:47;23.30;99.90
14769;DHT22;7476;49.404;11.152;2022-10-31T14:25:27;23.00;99.90
14769;DHT22;7476;49.404;11.152;2022-10-31T14:27:55;22.50;99.90
14769;DHT22;7476;49.404;11.152;2022-10-31T14:30:24;22.30;99.90
14769;DHT22;7476;49.404;11.152;2022-10-31T14:32:55;22.00;99.90
14769;DHT22;7476;49.404;11.152;2022-10-31T14:35:26;21.80;99.90
14769;DHT22;7476;49.404;11.152;2022-10-31T14:40:47;21.30;99.90
14769;DHT22;7476;49.404;11.152;2022-10-31T14:46:12;20.90;99.90
14769;DHT22;7476;49.404;11.152;2022-10-31T14:49:05;20.70;99.90
14769;DHT22;7476;49.404;11.152;2022-10-31T14:51:38;20.50;99.90
14769;DHT22;7476;49.404;11.152;2022-10-31T14:54:06;20.30;99.90
14769;DHT22;7476;49.404;11.152;2022-10-31T14:56:39;20.00;99.90
14769;DHT22;7476;49.404;11.152;2022-10-31T14:59:11;19.60;99.90
14769;DHT22;7476;49.404;11.152;2022-10-31T15:01:39;19.40;99.90
14769;DHT22;7476;49.404;11.152;2022-10-31T15:04:11;19.20;99.90
14769;DHT22;7476;49.404;11.152;2022-10-31T15:06:43;19.00;99.90
14769;DHT22;7476;49.404;11.152;2022-10-31T15:09:21;18.90;99.90
14769;DHT22;7476;49.404;11.152;2022-10-31T15:11:50;18.70;99.90
14769;DHT22;7476;49.404;11.152;2022-10-31T15:14:25;18.50;99.90
14769;DHT22;7476;49.404;11.152;2022-10-31T15:16:53;18.30;99.90
14769;DHT22;7476;49.404;11.152;2022-10-31T15:19:22;18.10;99.90
14769;DHT22;7476;49.404;11.152;2022-10-31T15:21:51;18.00;99.90
14769;DHT22;7476;49.404;11.152;2022-10-31T15:24:18;17.80;99.90
14769;DHT22;7476;49.404;11.152;2022-10-31T15:26:48;17.70;99.90
14769;DHT22;7476;49.404;11.152;2022-10-31T15:29:17;18.00;99.90
14769;DHT22;7476;49.404;11.152;2022-10-31T15:31:50;18.80;99.90
14769;DHT22;7476;49.404;11.152;2022-10-31T15:34:21;19.30;99.90
14769;DHT22;7476;49.404;11.152;2022-10-31T15:36:49;19.20;99.90
14769;DHT22;7476;49.404;11.152;2022-10-31T15:39:16;18.90;99.90
14769;DHT22;7476;49.404;11.152;2022-10-31T15:41:48;18.60;99.90
14769;DHT22;7476;49.404;11.152;2022-10-31T15:44:21;18.20;99.90
14769;DHT22;7476;49.404;11.152;2022-10-31T15:46:53;17.90;99.90
14769;DHT22;7476;49.404;11.152;2022-10-31T15:49:28;17.50;99.90
14769;DHT22;7476;49.404;11.152;2022-10-31T15:51:56;17.20;99.90
14769;DHT22;7476;49.404;11.152;2022-10-31T15:54:25;16.90;99.90
14769;DHT22;7476;49.404;11.152;2022-10-31T15:56:52;16.60;99.90
14769;DHT22;7476;49.404;11.152;2022-10-31T15:59:23;16.40;99.90
14769;DHT22;7476;49.404;11.152;2022-10-31T16:02:00;16.20;99.90
14769;DHT22;7476;49.404;11.152;2022-10-31T16:04:27;16.00;99.90
14769;DHT22;7476;49.404;11.152;2022-10-31T16:06:59;15.80;99.90